createdAt,value
2023-01-05T00:01:20.063Z,100156.28
2023-01-05T00:04:09.905Z,100119.13
2023-01-05T00:06:58.737Z,100150.00
2023-01-05T00:09:53.634Z,100130.94
2023-01-05T00:13:01.171Z,100130.28
2023-01-05T00:16:23.676Z,100136.41
2023-01-05T00:19:43.231Z,100140.94
2023-01-05T00:22:34.794Z,100142.72
2023-01-05T00:25:28.971Z,100145.19
2023-01-05T00:28:20.019Z,100145.41
2023-01-05T00:31:07.027Z,100149.16
2023-01-05T00:33:53.903Z,100147.22
2023-01-05T00:36:43.506Z,100150.59
2023-01-05T00:39:32.723Z,100151.13
2023-01-05T00:42:23.720Z,100141.00
2023-01-05T00:45:16.893Z,100140.53
2023-01-05T00:48:05.581Z,100128.16
2023-01-05T00:50:57.226Z,100128.97
2023-01-05T00:53:48.128Z,100135.19
2023-01-05T00:56:34.540Z,100138.66
2023-01-05T00:59:25.235Z,100138.47
2023-01-05T01:02:14.786Z,100131.47
2023-01-05T01:05:01.970Z,100132.16
2023-01-05T01:07:56.873Z,100129.25
2023-01-05T01:10:45.625Z,100124.75
2023-01-05T01:13:33.585Z,100132.44
2023-01-05T01:16:23.741Z,100128.13
2023-01-05T01:19:15.385Z,100127.06
2023-01-05T01:25:13.002Z,100142.69
2023-01-05T01:28:04.386Z,100134.72
2023-01-05T01:30:52.305Z,100148.28
2023-01-05T01:33:47.446Z,100152.66
2023-01-05T01:36:37.169Z,100142.97
2023-01-05T01:39:27.074Z,100142.59
2023-01-05T01:42:24.654Z,100140.88
2023-01-05T01:45:23.469Z,100135.47
2023-01-05T01:48:28.354Z,100137.97
2023-01-05T01:51:42.753Z,100135.44
2023-01-05T01:54:29.746Z,100130.03
2023-01-05T01:57:24.556Z,100123.03
2023-01-05T02:00:21.712Z,100127.06
2023-01-05T02:03:31.200Z,100151.53
2023-01-05T02:06:23.737Z,100144.53
2023-01-05T02:09:11.200Z,100125.97
2023-01-05T02:12:23.924Z,100138.06
2023-01-05T02:15:38.717Z,100126.72
2023-01-05T02:19:05.379Z,100125.75
2023-01-05T02:22:24.490Z,100117.59
2023-01-05T02:25:47.060Z,100124.56
2023-01-05T02:29:03.094Z,100124.63
2023-01-05T02:32:14.804Z,100126.00
2023-01-05T02:35:19.980Z,100109.50
2023-01-05T02:38:24.326Z,100121.16
2023-01-05T02:41:25.231Z,100118.41
2023-01-05T02:44:34.627Z,100102.38
2023-01-05T02:47:46.281Z,100110.44
2023-01-05T02:50:52.531Z,100110.16
2023-01-05T02:53:52.829Z,100104.06
2023-01-05T02:57:15.038Z,100107.25
2023-01-05T03:00:02.072Z,100119.91
2023-01-05T03:03:17.900Z,100108.47
2023-01-05T03:06:25.547Z,100111.88
2023-01-05T03:09:20.549Z,100119.59
2023-01-05T03:12:54.371Z,100119.00
2023-01-05T03:16:13.462Z,100130.91
2023-01-05T03:19:32.041Z,100127.03
2023-01-05T03:22:59.800Z,100143.47
2023-01-05T03:26:06.178Z,100135.81
2023-01-05T03:29:32.276Z,100154.72
2023-01-05T03:32:42.505Z,100157.97
2023-01-05T03:35:44.345Z,100152.03
2023-01-05T03:38:39.207Z,100132.19
2023-01-05T03:41:28.329Z,100136.66
2023-01-05T03:44:20.171Z,100160.91
2023-01-05T03:47:10.437Z,100157.50
2023-01-05T03:49:58.876Z,100156.78
2023-01-05T03:52:59.222Z,100158.00
2023-01-05T03:55:50.753Z,100154.75
2023-01-05T03:58:38.099Z,100167.13
2023-01-05T04:01:26.109Z,100168.56
2023-01-05T04:04:16.262Z,100181.84
2023-01-05T04:07:16.393Z,100173.28
2023-01-05T04:10:10.772Z,100175.75
2023-01-05T04:13:07.718Z,100177.69
2023-01-05T04:15:54.881Z,100181.03
2023-01-05T04:18:44.678Z,100181.16
2023-01-05T04:21:39.092Z,100193.31
2023-01-05T04:24:26.123Z,100202.88
2023-01-05T04:27:19.069Z,100199.28
2023-01-05T04:30:26.191Z,100196.72
2023-01-05T04:33:15.452Z,100205.56
2023-01-05T04:36:08.606Z,100195.16
2023-01-05T04:38:59.678Z,100206.53
2023-01-05T04:41:58.810Z,100201.34
2023-01-05T04:44:51.887Z,100201.53
2023-01-05T04:47:41.089Z,100205.19
2023-01-05T04:50:32.403Z,100202.66
2023-01-05T04:53:42.281Z,100215.13
2023-01-05T04:56:38.307Z,100201.78
2023-01-05T04:59:30.779Z,100213.31
2023-01-05T05:02:32.011Z,100215.88
2023-01-05T05:05:32.517Z,100217.72
2023-01-05T05:08:25.896Z,100225.88
2023-01-05T05:11:14.938Z,100231.22
2023-01-05T05:14:06.388Z,100229.66
2023-01-05T05:16:53.425Z,100222.44
2023-01-05T05:19:44.108Z,100226.13
2023-01-05T05:22:31.087Z,100229.63
2023-01-05T05:25:24.287Z,100225.91
2023-01-05T05:28:17.288Z,100230.28
2023-01-05T05:31:06.949Z,100221.59
2023-01-05T05:33:56.356Z,100223.22
2023-01-05T05:36:49.552Z,100228.50
2023-01-05T05:39:39.411Z,100233.78
2023-01-05T05:42:26.167Z,100233.78
2023-01-05T05:45:13.166Z,100223.84
2023-01-05T05:48:20.462Z,100214.34
2023-01-05T05:51:07.135Z,100223.19
2023-01-05T05:54:00.762Z,100217.81
2023-01-05T05:56:49.187Z,100217.84
2023-01-05T05:59:39.473Z,100233.78
2023-01-05T06:02:28.583Z,100240.91
2023-01-05T06:05:17.756Z,100234.72
2023-01-05T06:08:05.475Z,100242.72
2023-01-05T06:10:59.673Z,100235.66
2023-01-05T06:13:48.654Z,100226.88
2023-01-05T06:16:40.139Z,100240.22
2023-01-05T06:19:29.481Z,100248.81
2023-01-05T06:22:20.874Z,100251.78
2023-01-05T06:25:08.375Z,100247.31
2023-01-05T06:27:59.019Z,100263.22
2023-01-05T06:30:50.905Z,100262.28
2023-01-05T06:33:38.093Z,100277.09
2023-01-05T06:36:27.218Z,100289.63
2023-01-05T06:39:29.465Z,100273.88
2023-01-05T06:42:23.262Z,100279.06
2023-01-05T06:45:41.486Z,100286.16
2023-01-05T06:48:28.231Z,100284.50
2023-01-05T06:51:18.319Z,100284.56
2023-01-05T06:54:07.323Z,100292.28
2023-01-05T06:56:56.095Z,100289.63
2023-01-05T06:59:45.507Z,100299.25
2023-01-05T07:02:35.809Z,100306.34
2023-01-05T07:05:25.089Z,100302.56
2023-01-05T07:08:12.171Z,100300.91
2023-01-05T07:10:58.979Z,100302.56
2023-01-05T07:13:54.955Z,100317.44
2023-01-05T07:16:44.096Z,100304.22
2023-01-05T07:23:41.937Z,100321.97
2023-01-05T07:26:28.368Z,100329.00
2023-01-05T07:29:16.267Z,100332.59
2023-01-05T07:32:05.297Z,100327.53
2023-01-05T07:34:56.270Z,100334.53
2023-01-05T07:37:51.827Z,100345.13
2023-01-05T07:40:38.715Z,100348.47
2023-01-05T07:43:28.489Z,100363.47
2023-01-05T07:46:19.339Z,100356.59
2023-01-05T07:49:10.488Z,100359.31
2023-01-05T07:52:03.083Z,100373.50
2023-01-05T07:54:51.850Z,100383.25
2023-01-05T07:57:41.344Z,100379.81
2023-01-05T08:00:33.111Z,100378.13
2023-01-05T08:03:26.878Z,100389.44
2023-01-05T08:06:54.322Z,100385.81
2023-01-05T08:10:00.570Z,100381.88
2023-01-05T08:13:02.510Z,100400.00
2023-01-05T08:15:51.544Z,100399.19
2023-01-05T08:18:40.596Z,100394.38
2023-01-05T08:21:34.646Z,100417.13
2023-01-05T08:24:23.495Z,100406.66
2023-01-05T08:27:14.322Z,100425.25
2023-01-05T08:30:03.513Z,100411.50
2023-01-05T08:32:52.331Z,100426.22
2023-01-05T08:35:47.437Z,100441.94
2023-01-05T08:38:34.014Z,100439.50
2023-01-05T08:41:34.663Z,100433.03
2023-01-05T08:44:24.747Z,100446.13
2023-01-05T08:47:11.094Z,100453.88
2023-01-05T08:50:00.490Z,100457.44
2023-01-05T08:52:48.155Z,100458.22
2023-01-05T08:55:36.429Z,100459.94
2023-01-05T08:58:28.014Z,100475.63
2023-01-05T09:01:36.209Z,100467.78
2023-01-05T09:04:23.115Z,100469.47
2023-01-05T09:10:10.974Z,100471.94
2023-01-05T09:12:58.063Z,100467.53
2023-01-05T09:15:47.246Z,100471.84
2023-01-05T09:18:51.482Z,100472.69
2023-01-05T09:21:42.300Z,100477.03
2023-01-05T09:24:31.702Z,100500.66
2023-01-05T09:27:27.991Z,100475.25
2023-01-05T09:30:18.447Z,100481.16
2023-01-05T09:33:05.301Z,100477.56
2023-01-05T09:36:00.002Z,100480.19
2023-01-05T09:39:10.208Z,100500.34
2023-01-05T09:42:08.510Z,100525.84
2023-01-05T09:45:38.785Z,100503.88
2023-01-05T09:48:47.241Z,100488.16
2023-01-05T09:51:39.568Z,100467.09
2023-01-05T09:54:42.628Z,100472.50
2023-01-05T09:57:30.711Z,100474.28
2023-01-05T10:00:24.280Z,100500.31
2023-01-05T10:04:01.656Z,100502.75
2023-01-05T10:06:50.406Z,100502.38
2023-01-05T10:10:02.223Z,100501.47
2023-01-05T10:13:15.202Z,100497.97
2023-01-05T10:16:06.327Z,100511.06
2023-01-05T10:19:03.254Z,100505.00
2023-01-05T10:22:17.045Z,100500.63
2023-01-05T10:25:13.968Z,100508.63
2023-01-05T10:28:31.930Z,100523.44
2023-01-05T10:31:46.002Z,100517.41
2023-01-05T10:34:56.679Z,100516.28
2023-01-05T10:38:34.216Z,100536.50
2023-01-05T10:41:52.617Z,100533.06
2023-01-05T10:44:53.655Z,100548.88
2023-01-05T10:47:52.123Z,100546.19
2023-01-05T10:50:47.563Z,100545.38
2023-01-05T10:53:42.606Z,100544.50
2023-01-05T10:56:31.813Z,100556.09
2023-01-05T10:59:21.650Z,100558.59
2023-01-05T11:02:32.504Z,100555.06
2023-01-05T11:05:34.484Z,100571.41
2023-01-05T11:08:48.461Z,100576.47
2023-01-05T11:11:45.974Z,100584.50
2023-01-05T11:15:02.905Z,100577.44
2023-01-05T11:17:54.160Z,100575.53
2023-01-05T11:21:22.224Z,100599.19
2023-01-05T11:24:33.413Z,100591.25
2023-01-05T11:27:30.094Z,100592.03
2023-01-05T11:30:28.691Z,100597.06
2023-01-05T11:33:28.562Z,100611.75
2023-01-05T11:36:16.722Z,100617.66
2023-01-05T11:39:10.943Z,100619.56
2023-01-05T11:42:27.890Z,100616.78
2023-01-05T11:45:29.539Z,100632.78
2023-01-05T11:48:26.660Z,100624.88
2023-01-05T11:51:53.074Z,100640.59
2023-01-05T11:54:42.583Z,100654.78
2023-01-05T11:57:37.021Z,100649.53
2023-01-05T12:00:37.785Z,100668.69
2023-01-05T12:04:02.409Z,100682.13
2023-01-05T12:07:24.736Z,100689.25
2023-01-05T12:10:52.024Z,100692.28
2023-01-05T12:14:24.720Z,100701.78
2023-01-05T12:17:15.895Z,100591.19
2023-01-05T12:20:38.219Z,100716.72
2023-01-05T12:24:06.580Z,100731.66
2023-01-05T12:27:28.315Z,100731.88
2023-01-05T12:34:33.484Z,100741.00
2023-01-05T12:37:52.389Z,100748.97
2023-01-05T12:41:13.417Z,100763.91
2023-01-05T12:44:24.931Z,100774.28
2023-01-05T12:48:09.638Z,100778.81
2023-01-05T12:51:14.975Z,100798.31
2023-01-05T12:54:18.075Z,100791.50
2023-01-05T12:57:25.227Z,100801.47
2023-01-05T13:01:15.499Z,100807.84
2023-01-05T13:04:49.349Z,100814.84
2023-01-05T13:08:23.488Z,100812.22
2023-01-05T13:11:31.921Z,100826.34
2023-01-05T13:14:31.849Z,100829.09
2023-01-05T13:17:37.594Z,100831.22
2023-01-05T13:20:54.628Z,100842.19
2023-01-05T13:24:19.969Z,100854.59
2023-01-05T13:27:14.937Z,100864.66
2023-01-05T13:30:16.962Z,100884.25
2023-01-05T13:33:47.016Z,100878.41
2023-01-05T13:37:17.959Z,100881.28
2023-01-05T13:40:53.087Z,100906.84
2023-01-05T13:44:13.270Z,100908.81
2023-01-05T13:47:46.346Z,100921.97
2023-01-05T13:51:12.215Z,100934.41
2023-01-05T13:54:11.999Z,100941.56
2023-01-05T13:57:12.235Z,100952.19
2023-01-05T14:00:11.217Z,100961.97
2023-01-05T14:03:24.996Z,100966.41
2023-01-05T14:06:33.675Z,100977.88
2023-01-05T14:09:45.380Z,100988.44
2023-01-05T14:13:14.370Z,100995.53
2023-01-05T14:16:06.389Z,100994.69
2023-01-05T14:19:16.229Z,100997.41
2023-01-05T14:22:46.179Z,100998.34
2023-01-05T14:26:00.882Z,101017.66
2023-01-05T14:29:07.243Z,101017.69
2023-01-05T14:31:57.295Z,101033.47
2023-01-05T14:34:59.232Z,101034.41
2023-01-05T14:38:10.025Z,101034.47
2023-01-05T14:40:57.635Z,101045.81
2023-01-05T14:43:49.219Z,101056.38
2023-01-05T14:46:56.342Z,101069.56
2023-01-05T14:49:53.964Z,101067.00
2023-01-05T14:53:10.199Z,101069.75
2023-01-05T14:56:48.665Z,101083.72
2023-01-05T14:59:36.010Z,101102.16
2023-01-05T15:03:03.156Z,101105.63
2023-01-05T15:06:34.364Z,101115.31
2023-01-05T15:10:10.215Z,101118.91
2023-01-05T15:13:26.829Z,101114.63
2023-01-05T15:16:38.236Z,101132.13
2023-01-05T15:20:02.857Z,101142.66
2023-01-05T15:23:23.498Z,101147.91
2023-01-05T15:26:42.756Z,101157.59
2023-01-05T15:30:08.754Z,101158.47
2023-01-05T15:33:27.796Z,101159.34
2023-01-05T15:36:55.079Z,101160.28
2023-01-05T15:39:53.829Z,101162.06
2023-01-05T15:42:51.302Z,101179.59
2023-01-05T15:45:55.199Z,101183.09
2023-01-05T15:49:08.879Z,101195.38
2023-01-05T15:52:04.570Z,101203.28
2023-01-05T15:55:18.423Z,101204.16
2023-01-05T15:58:22.191Z,101208.56
2023-01-05T16:01:17.019Z,101210.31
2023-01-05T16:04:18.143Z,101209.41
2023-01-05T16:07:06.597Z,101226.06
2023-01-05T16:09:55.513Z,101223.41
2023-01-05T16:12:45.081Z,101226.03
2023-01-05T16:15:41.354Z,101223.41
2023-01-05T16:18:44.011Z,101236.53
2023-01-05T16:21:44.519Z,101247.06
2023-01-05T16:24:56.485Z,101254.06
2023-01-05T16:27:59.124Z,101266.28
2023-01-05T16:31:38.441Z,101266.31
2023-01-05T16:34:34.535Z,101289.97
2023-01-05T16:37:23.652Z,101289.97
2023-01-05T16:40:31.401Z,101304.84
2023-01-05T16:43:24.511Z,101296.94
2023-01-05T16:46:44.968Z,101293.44
2023-01-05T16:49:58.100Z,101307.47
2023-01-05T16:52:59.353Z,101293.44
2023-01-05T16:55:57.153Z,101303.97
2023-01-05T16:58:58.300Z,101305.72
2023-01-05T17:01:53.658Z,101314.50
2023-01-05T17:04:46.648Z,101317.09
2023-01-05T17:07:33.882Z,101327.63
2023-01-05T17:10:38.857Z,101324.09
2023-01-05T17:13:35.983Z,101336.38
2023-01-05T17:16:30.693Z,101334.63
2023-01-05T17:19:29.078Z,101334.66
2023-01-05T17:22:25.040Z,101340.75
2023-01-05T17:25:25.401Z,101350.41
2023-01-05T17:31:09.302Z,101358.28
2023-01-05T17:33:58.340Z,101359.16
2023-01-05T17:36:53.968Z,101361.78
2023-01-05T17:39:46.999Z,101380.19
2023-01-05T17:42:48.176Z,101374.94
2023-01-05T17:45:47.828Z,101374.06
2023-01-05T17:48:40.980Z,101380.19
2023-01-05T17:51:41.695Z,101375.81
2023-01-05T17:57:32.976Z,101399.47
2023-01-05T18:00:33.536Z,101405.59
2023-01-05T18:03:26.945Z,101403.84
2023-01-05T18:06:14.042Z,101403.84
2023-01-05T18:09:03.708Z,101406.47
2023-01-05T18:12:00.385Z,101402.97
2023-01-05T18:14:53.023Z,101410.84
2023-01-05T18:17:48.924Z,101412.63
2023-01-05T18:23:29.305Z,101427.50
2023-01-05T18:26:16.513Z,101430.09
2023-01-05T18:29:03.383Z,101427.47
2023-01-05T18:31:51.989Z,101430.09
2023-01-05T18:34:42.752Z,101443.22
2023-01-05T18:37:31.976Z,101449.38
2023-01-05T18:40:22.997Z,101449.34
2023-01-05T18:43:09.828Z,101465.97
2023-01-05T18:45:57.856Z,101464.22
2023-01-05T18:48:55.508Z,101460.72
2023-01-05T18:51:46.246Z,101470.28
2023-01-05T18:54:35.786Z,101475.50
2023-01-05T18:57:24.970Z,101482.56
2023-01-05T19:00:15.232Z,101479.94
2023-01-05T19:03:04.105Z,101473.81
2023-01-05T19:05:55.278Z,101484.34
2023-01-05T19:08:45.425Z,101486.09
2023-01-05T19:11:34.643Z,101479.91
2023-01-05T19:14:23.537Z,101483.47
2023-01-05T19:17:12.972Z,101499.22
2023-01-05T19:19:59.470Z,101501.88
2023-01-05T19:22:50.383Z,101510.59
2023-01-05T19:25:39.767Z,101505.34
2023-01-05T19:28:45.221Z,101503.59
2023-01-05T19:31:34.710Z,101505.31
2023-01-05T19:34:21.426Z,101507.94
2023-01-05T19:37:10.593Z,101509.69
2023-01-05T19:40:01.091Z,101510.56
2023-01-05T19:42:50.414Z,101516.69
2023-01-05T19:45:37.304Z,101523.72
2023-01-05T19:48:34.135Z,101523.69
2023-01-05T19:51:25.577Z,101520.16
2023-01-05T19:54:16.091Z,101533.34
2023-01-05T19:57:09.881Z,101520.19
2023-01-05T19:59:58.907Z,101523.75
2023-01-05T20:02:45.424Z,101533.38
2023-01-05T20:05:34.352Z,101536.81
2023-01-05T20:08:23.248Z,101528.06
2023-01-05T20:11:42.045Z,101542.94
2023-01-05T20:14:36.630Z,101537.66
2023-01-05T20:17:25.523Z,101538.53
2023-01-05T20:20:17.885Z,101548.97
2023-01-05T20:23:06.709Z,101548.09
2023-01-05T20:25:53.610Z,101555.06
2023-01-05T20:28:45.331Z,101554.09
2023-01-05T20:31:46.713Z,101564.53
2023-01-05T20:34:57.498Z,101571.53
2023-01-05T20:37:49.096Z,101569.72
2023-01-05T20:40:39.412Z,101577.41
2023-01-05T20:43:26.001Z,101584.22
2023-01-05T20:46:23.462Z,101578.94
2023-01-05T20:49:23.480Z,101595.50
2023-01-05T20:52:30.422Z,101597.28
2023-01-05T20:55:22.281Z,101591.06
2023-01-05T20:58:10.987Z,101604.09
2023-01-05T21:01:10.283Z,101603.94
2023-01-05T21:04:01.790Z,101606.59
2023-01-05T21:07:01.438Z,101608.19
2023-01-05T21:09:48.400Z,101614.94
2023-01-05T21:12:37.481Z,101618.34
2023-01-05T21:15:24.626Z,101621.63
2023-01-05T21:18:17.463Z,101623.97
2023-01-05T21:21:12.801Z,101636.94
2023-01-05T21:24:02.490Z,101635.00
2023-01-05T21:26:52.076Z,101637.53
2023-01-05T21:29:42.017Z,101652.25
2023-01-05T21:32:31.679Z,101646.06
2023-01-05T21:35:20.923Z,101639.03
2023-01-05T21:38:12.683Z,101646.75
2023-01-05T21:41:37.449Z,101652.66
2023-01-05T21:44:24.726Z,101652.56
2023-01-05T21:47:20.717Z,101650.69
2023-01-05T21:50:50.721Z,101657.44
2023-01-05T21:54:01.405Z,101656.44
2023-01-05T21:56:54.744Z,101654.72
2023-01-05T21:59:45.102Z,101656.50
2023-01-05T22:02:43.929Z,101646.88
2023-01-05T22:05:33.923Z,101647.75
2023-01-05T22:08:24.032Z,101653.72
2023-01-05T22:11:17.773Z,101640.47
2023-01-05T22:14:12.628Z,101657.75
2023-01-05T22:17:05.865Z,101644.34
2023-01-05T22:20:05.394Z,101652.91
2023-01-05T22:22:57.190Z,101651.03
2023-01-05T22:25:44.888Z,101657.03
2023-01-05T22:28:33.944Z,101655.03
2023-01-05T22:31:35.306Z,101656.03
2023-01-05T22:34:36.272Z,101653.50
2023-01-05T22:37:56.106Z,101650.00
2023-01-05T22:40:53.719Z,101666.25
2023-01-05T22:43:47.196Z,101666.41
2023-01-05T22:46:41.307Z,101672.75
2023-01-05T22:49:37.183Z,101669.31
2023-01-05T22:52:39.449Z,101671.88
2023-01-05T22:55:26.533Z,101667.56
2023-01-05T22:58:22.052Z,101665.06
2023-01-05T23:01:46.998Z,101665.59
2023-01-05T23:04:46.108Z,101659.38
2023-01-05T23:07:34.981Z,101662.91
2023-01-05T23:10:24.483Z,101652.22
2023-01-05T23:13:13.307Z,101665.28
2023-01-05T23:16:01.498Z,101664.28
2023-01-05T23:18:49.874Z,101678.91
2023-01-05T23:21:45.533Z,101676.88
2023-01-05T23:24:36.050Z,101672.31
2023-01-05T23:27:26.149Z,101682.44
2023-01-05T23:30:15.685Z,101684.78
2023-01-05T23:33:05.133Z,101683.72
2023-01-05T23:35:53.479Z,101686.94
2023-01-05T23:38:47.471Z,101675.56
2023-01-05T23:41:37.193Z,101680.69
2023-01-05T23:44:23.812Z,101678.81
2023-01-05T23:47:14.457Z,101667.50
2023-01-05T23:53:06.690Z,101652.38
2023-01-05T23:56:15.328Z,101666.09
2023-01-05T23:59:12.360Z,101669.34
